createdAt,value
2023-04-11T00:01:01.605Z,8.73
2023-04-11T00:03:30.109Z,8.67
2023-04-11T00:08:15.839Z,8.59
2023-04-11T00:10:45.623Z,8.52
2023-04-11T00:13:14.107Z,8.48
2023-04-11T00:15:42.304Z,8.45
2023-04-11T00:18:12.777Z,8.41
2023-04-11T00:20:40.923Z,8.38
2023-04-11T00:23:09.239Z,8.36
2023-04-11T00:25:37.934Z,8.33
2023-04-11T00:28:06.224Z,8.31
2023-04-11T00:30:36.612Z,8.28
2023-04-11T00:33:05.881Z,8.24
2023-04-11T00:35:35.346Z,8.20
2023-04-11T00:38:04.216Z,8.15
2023-04-11T00:40:32.699Z,8.10
2023-04-11T00:43:20.805Z,8.07
2023-04-11T00:45:49.192Z,8.05
2023-04-11T00:48:17.697Z,8.02
2023-04-11T00:50:48.016Z,8.02
2023-04-11T00:53:18.959Z,8.01
2023-04-11T00:55:47.123Z,7.99
2023-04-11T00:58:16.920Z,7.97
2023-04-11T01:00:45.054Z,7.96
2023-04-11T01:03:14.691Z,7.92
2023-04-11T01:05:43.508Z,7.89
2023-04-11T01:08:13.532Z,7.86
2023-04-11T01:10:42.105Z,7.85
2023-04-11T01:13:10.326Z,7.82
2023-04-11T01:15:48.689Z,7.79
2023-04-11T01:18:18.980Z,7.77
2023-04-11T01:20:47.120Z,7.76
2023-04-11T01:23:25.869Z,7.74
2023-04-11T01:25:54.142Z,7.73
2023-04-11T01:28:22.736Z,7.71
2023-04-11T01:30:51.388Z,7.69
2023-04-11T01:33:23.170Z,7.68
2023-04-11T01:35:51.497Z,7.67
2023-04-11T01:38:23.249Z,7.66
2023-04-11T01:40:52.419Z,7.65
2023-04-11T01:43:20.705Z,7.65
2023-04-11T01:45:50.812Z,7.64
2023-04-11T01:48:19.737Z,7.62
2023-04-11T01:50:48.019Z,7.61
2023-04-11T01:53:16.826Z,7.59
2023-04-11T01:55:47.387Z,7.56
2023-04-11T01:58:16.554Z,7.54
2023-04-11T02:00:45.034Z,7.53
2023-04-11T02:03:14.336Z,7.51
2023-04-11T02:05:42.894Z,7.48
2023-04-11T02:08:19.063Z,7.46
2023-04-11T02:10:47.398Z,7.44
2023-04-11T02:13:15.543Z,7.42
2023-04-11T02:15:49.082Z,7.39
2023-04-11T02:18:18.861Z,7.35
2023-04-11T02:20:47.935Z,7.34
2023-04-11T02:23:16.378Z,7.32
2023-04-11T02:25:44.738Z,7.28
2023-04-11T02:28:12.965Z,7.25
2023-04-11T02:30:41.538Z,7.24
2023-04-11T02:33:10.570Z,7.21
2023-04-11T02:35:38.955Z,7.21
2023-04-11T02:38:09.153Z,7.22
2023-04-11T02:40:38.006Z,7.22
2023-04-11T02:43:11.744Z,7.23
2023-04-11T02:45:41.415Z,7.22
2023-04-11T02:48:09.700Z,7.19
2023-04-11T02:50:44.031Z,7.20
2023-04-11T02:53:13.001Z,7.19
2023-04-11T02:55:49.724Z,7.16
2023-04-11T02:58:20.255Z,7.13
2023-04-11T03:00:49.683Z,7.09
2023-04-11T03:03:26.554Z,7.07
2023-04-11T03:05:57.151Z,7.05
2023-04-11T03:08:25.961Z,7.04
2023-04-11T03:10:56.794Z,7.00
2023-04-11T03:13:26.467Z,6.96
2023-04-11T03:15:55.229Z,6.93
2023-04-11T03:18:27.718Z,6.90
2023-04-11T03:20:56.570Z,6.88
2023-04-11T03:23:27.710Z,6.83
2023-04-11T03:25:56.770Z,6.79
2023-04-11T03:28:25.190Z,6.76
2023-04-11T03:30:54.671Z,6.72
2023-04-11T03:33:26.468Z,6.68
2023-04-11T03:35:54.908Z,6.66
2023-04-11T03:38:25.138Z,6.63
2023-04-11T03:40:53.483Z,6.59
2023-04-11T03:43:24.813Z,6.54
2023-04-11T03:45:53.613Z,6.52
2023-04-11T03:48:48.178Z,6.51
2023-04-11T03:51:17.020Z,6.49
2023-04-11T03:53:56.181Z,6.48
2023-04-11T03:56:34.086Z,6.48
2023-04-11T03:59:02.383Z,6.48
2023-04-11T04:01:38.278Z,6.48
2023-04-11T04:04:07.705Z,6.48
2023-04-11T04:06:38.743Z,6.49
2023-04-11T04:09:07.760Z,6.48
2023-04-11T04:11:47.851Z,6.47
2023-04-11T04:14:23.426Z,6.48
2023-04-11T04:16:52.813Z,6.51
2023-04-11T04:19:21.306Z,6.52
2023-04-11T04:21:50.297Z,6.54
2023-04-11T04:24:21.390Z,6.57
2023-04-11T04:27:01.122Z,6.60
2023-04-11T04:29:48.845Z,6.63
2023-04-11T04:32:33.307Z,6.66
2023-04-11T04:35:10.634Z,6.67
2023-04-11T04:37:45.871Z,6.68
2023-04-11T04:40:40.100Z,6.72
2023-04-11T04:43:18.370Z,6.74
2023-04-11T04:46:05.808Z,6.78
2023-04-11T04:48:40.815Z,6.84
2023-04-11T04:51:09.028Z,6.92
2023-04-11T04:53:45.162Z,7.00
2023-04-11T04:56:13.769Z,7.07
2023-04-11T04:58:47.381Z,7.15
2023-04-11T05:01:17.670Z,7.24
2023-04-11T05:03:50.858Z,7.30
2023-04-11T05:06:28.257Z,7.36
2023-04-11T05:08:58.818Z,7.42
2023-04-11T05:11:29.164Z,7.50
2023-04-11T05:13:57.745Z,7.58
2023-04-11T05:16:26.759Z,7.67
2023-04-11T05:18:55.694Z,7.75
2023-04-11T05:21:24.649Z,7.81
2023-04-11T05:23:58.164Z,7.88
2023-04-11T05:26:27.726Z,7.98
2023-04-11T05:28:56.221Z,8.07
2023-04-11T05:31:29.081Z,8.17
2023-04-11T05:33:58.600Z,8.26
2023-04-11T05:36:28.481Z,8.35
2023-04-11T05:38:58.340Z,8.45
2023-04-11T05:41:28.702Z,8.56
2023-04-11T05:43:57.125Z,8.67
2023-04-11T05:46:27.830Z,8.78
2023-04-11T05:48:58.147Z,8.88
2023-04-11T05:51:26.647Z,8.99
2023-04-11T05:53:55.261Z,9.11
2023-04-11T05:56:23.659Z,9.23
2023-04-11T05:58:52.438Z,9.34
2023-04-11T06:01:21.333Z,9.43
2023-04-11T06:03:50.039Z,9.52
2023-04-11T06:06:19.532Z,9.61
2023-04-11T06:08:47.848Z,9.70
2023-04-11T06:11:16.265Z,9.79
2023-04-11T06:13:50.562Z,9.89
2023-04-11T06:16:19.222Z,9.97
2023-04-11T06:18:47.457Z,10.03
2023-04-11T06:21:16.781Z,10.09
2023-04-11T06:23:45.144Z,10.17
2023-04-11T06:26:13.338Z,10.23
2023-04-11T06:28:42.824Z,10.29
2023-04-11T06:31:11.629Z,10.35
2023-04-11T06:33:40.327Z,10.43
2023-04-11T06:36:09.385Z,10.50
2023-04-11T06:38:38.427Z,10.56
2023-04-11T06:41:07.385Z,10.65
2023-04-11T06:43:35.708Z,10.74
2023-04-11T06:46:08.207Z,10.86
2023-04-11T06:48:36.471Z,10.94
2023-04-11T06:51:04.994Z,11.00
2023-04-11T06:53:37.164Z,11.07
2023-04-11T06:56:05.842Z,11.14
2023-04-11T06:58:39.146Z,11.21
2023-04-11T07:01:07.735Z,11.27
2023-04-11T07:03:37.381Z,11.34
2023-04-11T07:06:07.600Z,11.41
2023-04-11T07:08:37.061Z,11.45
2023-04-11T07:11:05.499Z,11.49
2023-04-11T07:13:35.144Z,11.55
2023-04-11T07:16:03.539Z,11.60
2023-04-11T07:18:33.146Z,11.63
2023-04-11T07:21:01.310Z,11.65
2023-04-11T07:23:30.355Z,11.67
2023-04-11T07:25:58.499Z,11.70
2023-04-11T07:28:31.630Z,11.72
2023-04-11T07:31:00.195Z,11.76
2023-04-11T07:33:29.480Z,11.79
2023-04-11T07:36:03.225Z,11.84
2023-04-11T07:38:31.869Z,11.90
2023-04-11T07:41:01.346Z,11.97
2023-04-11T07:43:31.500Z,12.05
2023-04-11T07:45:59.955Z,12.13
2023-04-11T07:48:30.455Z,12.17
2023-04-11T07:50:59.039Z,12.19
2023-04-11T07:53:32.854Z,12.21
2023-04-11T07:56:02.257Z,12.23
2023-04-11T07:58:30.578Z,12.24
2023-04-11T08:00:58.854Z,12.26
2023-04-11T08:03:28.905Z,12.27
2023-04-11T08:05:57.416Z,12.28
2023-04-11T08:08:26.300Z,12.31
2023-04-11T08:10:54.697Z,12.35
2023-04-11T08:13:22.875Z,12.37
2023-04-11T08:15:52.381Z,12.39
2023-04-11T08:18:21.731Z,12.43
2023-04-11T08:20:50.018Z,12.48
2023-04-11T08:23:21.948Z,12.49
2023-04-11T08:25:50.683Z,12.47
2023-04-11T08:28:19.006Z,12.44
2023-04-11T08:30:47.556Z,12.44
2023-04-11T08:33:16.484Z,12.45
2023-04-11T08:35:45.180Z,12.48
2023-04-11T08:38:14.451Z,12.52
2023-04-11T08:40:42.660Z,12.58
2023-04-11T08:43:12.506Z,12.64
2023-04-11T08:45:41.340Z,12.71
2023-04-11T08:48:09.675Z,12.75
2023-04-11T08:50:39.930Z,12.73
2023-04-11T08:53:08.796Z,12.74
2023-04-11T08:55:48.724Z,12.80
2023-04-11T08:58:17.329Z,12.93
2023-04-11T09:00:48.011Z,13.07
2023-04-11T09:03:16.943Z,13.19
2023-04-11T09:05:51.629Z,13.29
2023-04-11T09:08:20.604Z,13.39
2023-04-11T09:10:48.830Z,13.48
2023-04-11T09:13:24.739Z,13.56
2023-04-11T09:16:10.547Z,13.57
2023-04-11T09:18:40.450Z,13.59
2023-04-11T09:21:14.528Z,13.62
2023-04-11T09:23:42.988Z,13.66
2023-04-11T09:26:12.420Z,13.68
2023-04-11T09:28:44.981Z,13.73
2023-04-11T09:31:13.930Z,13.80
2023-04-11T09:34:08.768Z,13.86
2023-04-11T09:36:38.564Z,13.87
2023-04-11T09:39:19.567Z,13.89
2023-04-11T09:41:47.793Z,13.91
2023-04-11T09:44:16.049Z,13.93
2023-04-11T09:47:02.599Z,14.00
2023-04-11T09:49:31.808Z,14.10
2023-04-11T09:52:00.133Z,14.14
2023-04-11T09:54:28.889Z,14.20
2023-04-11T09:56:57.314Z,14.29
2023-04-11T09:59:26.511Z,14.39
2023-04-11T10:01:54.948Z,14.45
2023-04-11T10:04:23.269Z,14.48
2023-04-11T10:07:02.387Z,14.48
2023-04-11T10:09:31.404Z,14.49
2023-04-11T10:12:01.355Z,14.46
2023-04-11T10:14:39.571Z,14.41
2023-04-11T10:17:15.710Z,14.38
2023-04-11T10:19:45.346Z,14.36
2023-04-11T10:22:44.061Z,14.32
2023-04-11T10:25:19.694Z,14.31
2023-04-11T10:28:01.503Z,14.35
2023-04-11T10:30:40.254Z,14.38
2023-04-11T10:33:12.849Z,14.42
2023-04-11T10:36:00.092Z,14.45
2023-04-11T10:38:37.728Z,14.46
2023-04-11T10:41:18.787Z,14.48
2023-04-11T10:43:47.887Z,14.54
2023-04-11T10:46:25.830Z,14.60
2023-04-11T10:48:58.199Z,14.62
2023-04-11T10:51:32.654Z,14.64
2023-04-11T10:54:01.291Z,14.62
2023-04-11T10:56:52.749Z,14.56
2023-04-11T10:59:36.276Z,14.55
2023-04-11T11:02:04.606Z,14.55
2023-04-11T11:04:41.166Z,14.54
2023-04-11T11:07:13.490Z,14.54
2023-04-11T11:09:41.952Z,14.54
2023-04-11T11:12:12.981Z,14.58
2023-04-11T11:14:45.595Z,14.59
2023-04-11T11:17:14.527Z,14.62
2023-04-11T11:19:45.212Z,14.63
2023-04-11T11:22:16.716Z,14.67
2023-04-11T11:24:44.840Z,14.74
2023-04-11T11:27:23.106Z,14.80
2023-04-11T11:29:51.844Z,14.85
2023-04-11T11:32:26.512Z,14.89
2023-04-11T11:34:55.566Z,14.90
2023-04-11T11:37:24.111Z,14.90
2023-04-11T11:39:52.432Z,14.92
2023-04-11T11:42:21.444Z,14.94
2023-04-11T11:44:49.525Z,14.91
2023-04-11T11:47:17.866Z,14.85
2023-04-11T11:49:51.104Z,14.83
2023-04-11T11:52:36.097Z,14.84
2023-04-11T11:55:08.094Z,14.86
2023-04-11T11:57:45.708Z,14.90
2023-04-11T12:00:16.345Z,14.88
2023-04-11T12:02:57.414Z,14.85
2023-04-11T12:05:30.621Z,14.82
2023-04-11T12:08:00.585Z,14.82
2023-04-11T12:10:37.690Z,14.84
2023-04-11T12:13:20.977Z,14.86
2023-04-11T12:15:53.263Z,14.89
2023-04-11T12:18:26.740Z,14.93
2023-04-11T12:20:55.088Z,14.95
2023-04-11T12:23:23.789Z,14.95
2023-04-11T12:25:51.898Z,14.96
2023-04-11T12:28:20.702Z,14.98
2023-04-11T12:30:48.821Z,15.01
2023-04-11T12:33:17.243Z,15.04
2023-04-11T12:35:46.024Z,15.08
2023-04-11T12:38:17.486Z,15.09
2023-04-11T12:40:47.080Z,15.09
2023-04-11T12:43:15.775Z,15.05
2023-04-11T12:45:44.608Z,15.02
2023-04-11T12:48:13.471Z,15.03
2023-04-11T12:50:42.406Z,15.03
2023-04-11T12:53:10.586Z,15.03
2023-04-11T12:55:38.835Z,14.98
2023-04-11T12:58:09.603Z,14.97
2023-04-11T13:00:37.912Z,14.99
2023-04-11T13:03:16.316Z,15.00
2023-04-11T13:05:46.714Z,15.02
2023-04-11T13:08:15.685Z,15.04
2023-04-11T13:10:44.019Z,15.05
2023-04-11T13:15:46.718Z,15.08
2023-04-11T13:18:14.982Z,15.05
2023-04-11T13:20:46.181Z,15.01
2023-04-11T13:23:16.679Z,15.00
2023-04-11T13:25:48.741Z,14.99
2023-04-11T13:28:17.175Z,14.98
2023-04-11T13:30:46.522Z,14.97
2023-04-11T13:33:14.828Z,14.99
2023-04-11T13:35:43.357Z,14.99
2023-04-11T13:38:12.872Z,15.00
2023-04-11T13:40:42.832Z,15.01
2023-04-11T13:43:11.260Z,15.00
2023-04-11T13:45:39.700Z,15.00
2023-04-11T13:48:08.279Z,15.02
2023-04-11T13:50:37.935Z,15.05
2023-04-11T13:53:06.127Z,15.07
2023-04-11T13:55:34.318Z,15.05
2023-04-11T13:58:02.596Z,15.05
2023-04-11T14:00:36.362Z,15.05
2023-04-11T14:03:06.096Z,15.05
2023-04-11T14:05:35.828Z,15.06
2023-04-11T14:08:04.336Z,15.05
2023-04-11T14:10:35.778Z,15.01
2023-04-11T14:13:06.895Z,14.99
2023-04-11T14:15:35.194Z,14.97
2023-04-11T14:18:03.673Z,14.95
2023-04-11T14:20:37.160Z,14.96
2023-04-11T14:23:05.398Z,14.98
2023-04-11T14:25:33.724Z,14.94
2023-04-11T14:28:02.305Z,14.89
2023-04-11T14:30:30.959Z,14.86
2023-04-11T14:32:59.702Z,14.85
2023-04-11T14:35:29.050Z,14.86
2023-04-11T14:37:57.828Z,14.86
2023-04-11T14:40:26.061Z,14.86
2023-04-11T14:42:54.429Z,14.86
2023-04-11T14:45:24.374Z,14.86
2023-04-11T14:47:52.656Z,14.82
2023-04-11T14:50:20.972Z,14.77
2023-04-11T14:52:52.196Z,14.74
2023-04-11T14:55:22.031Z,14.73
2023-04-11T14:57:53.488Z,14.73
2023-04-11T15:00:24.692Z,14.74
2023-04-11T15:02:55.203Z,14.74
2023-04-11T15:05:23.871Z,14.73
2023-04-11T15:07:53.518Z,14.71
2023-04-11T15:10:23.325Z,14.69
2023-04-11T15:12:51.697Z,14.65
2023-04-11T15:15:19.867Z,14.62
2023-04-11T15:17:49.841Z,14.57
2023-04-11T15:20:20.193Z,14.54
2023-04-11T15:22:48.451Z,14.50
2023-04-11T15:25:17.085Z,14.47
2023-04-11T15:27:45.272Z,14.44
2023-04-11T15:30:13.801Z,14.41
2023-04-11T15:32:42.979Z,14.38
2023-04-11T15:35:11.292Z,14.34
2023-04-11T15:37:39.882Z,14.32
2023-04-11T15:40:12.445Z,14.29
2023-04-11T15:42:45.364Z,14.27
2023-04-11T15:45:14.056Z,14.24
2023-04-11T15:47:42.620Z,14.22
2023-04-11T15:50:12.196Z,14.20
2023-04-11T15:52:40.773Z,14.17
2023-04-11T15:55:10.132Z,14.15
2023-04-11T15:57:38.919Z,14.12
2023-04-11T16:00:10.806Z,14.11
2023-04-11T16:02:44.944Z,14.09
2023-04-11T16:05:13.647Z,14.07
2023-04-11T16:07:43.186Z,14.05
2023-04-11T16:10:11.590Z,14.02
2023-04-11T16:12:39.910Z,13.99
2023-04-11T16:15:08.645Z,13.96
2023-04-11T16:17:39.577Z,13.93
2023-04-11T16:20:12.081Z,13.91
2023-04-11T16:22:40.636Z,13.88
2023-04-11T16:25:09.108Z,13.85
2023-04-11T16:27:37.531Z,13.80
2023-04-11T16:30:06.684Z,13.76
2023-04-11T16:32:36.327Z,13.74
2023-04-11T16:35:05.492Z,13.73
2023-04-11T16:37:35.791Z,13.73
2023-04-11T16:40:08.344Z,13.71
2023-04-11T16:42:37.524Z,13.69
2023-04-11T16:45:07.315Z,13.67
2023-04-11T16:47:35.731Z,13.66
2023-04-11T16:50:05.922Z,13.63
2023-04-11T16:52:34.201Z,13.61
2023-04-11T16:55:05.817Z,13.60
2023-04-11T16:57:34.726Z,13.59
2023-04-11T17:00:10.969Z,13.58
2023-04-11T17:02:57.558Z,13.56
2023-04-11T17:05:25.891Z,13.54
2023-04-11T17:07:54.979Z,13.51
2023-04-11T17:10:23.178Z,13.47
2023-04-11T17:12:51.927Z,13.44
2023-04-11T17:15:22.062Z,13.43
2023-04-11T17:17:50.938Z,13.42
2023-04-11T17:20:21.960Z,13.41
2023-04-11T17:22:50.915Z,13.40
2023-04-11T17:25:19.577Z,13.39
2023-04-11T17:27:49.572Z,13.37
2023-04-11T17:30:18.264Z,13.35
2023-04-11T17:32:48.404Z,13.33
2023-04-11T17:35:16.675Z,13.33
2023-04-11T17:37:45.581Z,13.34
2023-04-11T17:40:14.516Z,13.34
2023-04-11T17:42:43.977Z,13.33
2023-04-11T17:47:44.281Z,13.32
2023-04-11T17:50:13.611Z,13.30
2023-04-11T17:52:43.798Z,13.30
2023-04-11T17:55:14.037Z,13.28
2023-04-11T17:57:42.812Z,13.26
2023-04-11T18:00:24.165Z,13.23
2023-04-11T18:03:00.832Z,13.20
2023-04-11T18:05:31.557Z,13.15
2023-04-11T18:08:03.853Z,13.11
2023-04-11T18:10:32.573Z,13.08
2023-04-11T18:13:00.916Z,13.05
2023-04-11T18:15:36.160Z,13.03
2023-04-11T18:18:08.157Z,12.99
2023-04-11T18:20:36.549Z,12.97
2023-04-11T18:23:04.929Z,12.96
2023-04-11T18:25:34.061Z,12.94
2023-04-11T18:28:02.524Z,12.91
2023-04-11T18:30:31.972Z,12.88
2023-04-11T18:33:03.474Z,12.86
2023-04-11T18:35:31.834Z,12.83
2023-04-11T18:38:00.408Z,12.80
2023-04-11T18:40:29.889Z,12.78
2023-04-11T18:43:00.252Z,12.76
2023-04-11T18:45:29.337Z,12.75
2023-04-11T18:47:57.893Z,12.73
2023-04-11T18:50:27.787Z,12.72
2023-04-11T18:52:58.955Z,12.71
2023-04-11T18:55:30.850Z,12.71
2023-04-11T18:58:00.702Z,12.70
2023-04-11T19:00:32.502Z,12.69
2023-04-11T19:03:01.836Z,12.69
2023-04-11T19:05:30.937Z,12.68
2023-04-11T19:08:00.394Z,12.66
2023-04-11T19:10:30.223Z,12.65
2023-04-11T19:12:58.490Z,12.64
2023-04-11T19:15:29.657Z,12.63
2023-04-11T19:18:00.065Z,12.61
2023-04-11T19:20:29.717Z,12.60
2023-04-11T19:23:04.637Z,12.59
2023-04-11T19:25:32.991Z,12.58
2023-04-11T19:28:01.201Z,12.57
2023-04-11T19:30:29.763Z,12.56
2023-04-11T19:32:59.438Z,12.54
2023-04-11T19:35:28.166Z,12.53
2023-04-11T19:37:59.137Z,12.53
2023-04-11T19:40:28.856Z,12.53
2023-04-11T19:42:57.252Z,12.53
2023-04-11T19:45:25.636Z,12.51
2023-04-11T19:47:54.475Z,12.51
2023-04-11T19:50:23.041Z,12.50
2023-04-11T19:52:56.293Z,12.50
2023-04-11T19:55:24.843Z,12.50
2023-04-11T19:57:53.181Z,12.49
2023-04-11T20:00:21.721Z,12.47
2023-04-11T20:03:14.710Z,12.46
2023-04-11T20:05:44.374Z,12.46
2023-04-11T20:08:12.783Z,12.45
2023-04-11T20:10:41.544Z,12.45
2023-04-11T20:13:09.782Z,12.45
2023-04-11T20:15:38.324Z,12.45
2023-04-11T20:18:06.604Z,12.45
2023-04-11T20:20:36.969Z,12.44
2023-04-11T20:23:15.933Z,12.43
2023-04-11T20:25:44.823Z,12.41
2023-04-11T20:28:13.026Z,12.40
2023-04-11T20:30:41.992Z,12.39
2023-04-11T20:33:10.493Z,12.36
2023-04-11T20:35:39.122Z,12.32
2023-04-11T20:38:08.078Z,12.28
2023-04-11T20:40:37.272Z,12.26
2023-04-11T20:43:06.716Z,12.22
2023-04-11T20:45:36.381Z,12.19
2023-04-11T20:48:06.513Z,12.16
2023-04-11T20:50:35.798Z,12.16
2023-04-11T20:53:04.309Z,12.14
2023-04-11T20:55:33.526Z,12.10
2023-04-11T20:58:01.684Z,12.06
2023-04-11T21:00:30.341Z,12.03
2023-04-11T21:02:59.543Z,12.00
2023-04-11T21:05:27.951Z,11.98
2023-04-11T21:08:00.368Z,11.94
2023-04-11T21:10:28.797Z,11.91
2023-04-11T21:12:57.005Z,11.86
2023-04-11T21:15:26.833Z,11.80
2023-04-11T21:17:55.147Z,11.76
2023-04-11T21:20:23.820Z,11.71
2023-04-11T21:22:55.972Z,11.66
2023-04-11T21:25:25.391Z,11.61
2023-04-11T21:27:53.639Z,11.54
2023-04-11T21:30:21.955Z,11.46
2023-04-11T21:33:05.071Z,11.40
2023-04-11T21:35:34.666Z,11.38
2023-04-11T21:38:02.862Z,11.41
2023-04-11T21:40:31.684Z,11.38
2023-04-11T21:43:00.072Z,11.34
2023-04-11T21:45:30.507Z,11.29
2023-04-11T21:47:59.800Z,11.25
2023-04-11T21:50:28.001Z,11.21
2023-04-11T21:53:04.890Z,11.19
2023-04-11T21:55:33.397Z,11.15
2023-04-11T21:58:01.529Z,11.12
2023-04-11T22:00:30.187Z,11.09
2023-04-11T22:02:58.580Z,11.08
2023-04-11T22:05:27.645Z,11.06
2023-04-11T22:08:22.906Z,11.03
2023-04-11T22:10:52.586Z,11.01
2023-04-11T22:13:20.854Z,10.99
2023-04-11T22:15:58.423Z,10.98
2023-04-11T22:18:27.229Z,10.95
2023-04-11T22:21:03.277Z,10.93
2023-04-11T22:23:31.880Z,10.91
2023-04-11T22:26:00.260Z,10.89
2023-04-11T22:28:30.825Z,10.88
2023-04-11T22:30:58.923Z,10.86
2023-04-11T22:33:27.133Z,10.84
2023-04-11T22:35:58.605Z,10.81
2023-04-11T22:38:27.743Z,10.78
2023-04-11T22:40:55.954Z,10.76
2023-04-11T22:43:24.328Z,10.73
2023-04-11T22:45:53.276Z,10.68
2023-04-11T22:48:21.460Z,10.63
2023-04-11T22:50:53.135Z,10.58
2023-04-11T22:53:26.253Z,10.51
2023-04-11T22:55:54.444Z,10.46
2023-04-11T22:58:22.689Z,10.42
2023-04-11T23:00:52.054Z,10.41
2023-04-11T23:03:21.444Z,10.40
2023-04-11T23:05:51.332Z,10.37
2023-04-11T23:08:19.594Z,10.34
2023-04-11T23:10:47.755Z,10.31
2023-04-11T23:13:16.343Z,10.27
2023-04-11T23:15:47.378Z,10.25
2023-04-11T23:18:15.550Z,10.21
2023-04-11T23:20:49.540Z,10.16
2023-04-11T23:23:19.927Z,10.10
2023-04-11T23:25:48.123Z,10.04
2023-04-11T23:28:16.704Z,9.97
2023-04-11T23:30:46.662Z,9.91
2023-04-11T23:33:16.082Z,9.88
2023-04-11T23:35:44.161Z,9.83
2023-04-11T23:38:13.397Z,9.78
2023-04-11T23:40:42.428Z,9.75
2023-04-11T23:43:12.775Z,9.70
2023-04-11T23:45:41.285Z,9.61
2023-04-11T23:48:11.088Z,9.54
2023-04-11T23:50:40.117Z,9.49
2023-04-11T23:53:08.420Z,9.42
2023-04-11T23:55:36.781Z,9.36
2023-04-11T23:58:05.012Z,9.32
